Time;durP1;ratioP1;P1;durP2;ratioP2;P2;SDS_P1;SDS_P2;PMS_P1;PMS_P2;Temp;Humidity;BMP_temperature;BMP_pressure;BME280_temperature;BME280_humidity;BME280_pressure;Samples;Min_cycle;Max_cycle;Signal;HPM_P1;HPM_P2
2021/12/24 00:00:11;;;;;;;3.87;3.50;;;;;;;;;;5044792;28;20225;-80
2021/12/24 00:02:40;;;;;;;4.83;4.30;;;;;;;;;;5037638;28;20224;-78
2021/12/24 00:05:08;;;;;;;4.90;4.10;;;;;;;;;;5037271;28;20288;-78
2021/12/24 00:07:35;;;;;;;4.17;3.77;;;;;;;;;;5037935;28;20316;-78
2021/12/24 00:10:02;;;;;;;4.67;3.80;;;;;;;;;;5038169;28;20250;-79
2021/12/24 00:12:33;;;;;;;4.20;3.70;;;;;;;;;;5037595;28;20229;-79
2021/12/24 00:15:08;;;;;;;4.43;4.03;;;;;;;;;;5038159;28;20237;-79
2021/12/24 00:17:37;;;;;;;4.37;3.97;;;;;;;;;;5038072;28;20259;-79
2021/12/24 00:20:25;;;;;;;6.30;3.97;;;;;;;;;;5038244;28;20214;-79
2021/12/24 00:36:48;;;;;;;4.87;3.40;;;;;;;;;;5037024;28;20208;-79
2021/12/24 00:39:15;;;;;;;4.30;3.53;;;;;;;;;;5037835;28;20271;-79
2021/12/24 00:41:42;;;;;;;3.70;3.40;;;;;;;;;;5036595;28;20241;-78
2021/12/24 00:44:09;;;;;;;4.37;3.60;;;;;;;;;;5037875;28;20292;-78
2021/12/24 00:46:37;;;;;;;4.10;3.70;;;;;;;;;;5036767;28;20263;-80
2021/12/24 00:49:05;;;;;;;5.17;3.30;;;;;;;;;;5039288;28;20218;-78
2021/12/24 00:51:53;;;;;;;4.70;3.13;;;;;;;;;;5034158;28;20212;-78
2021/12/24 00:57:06;;;;;;;3.93;3.07;;;;;;;;;;5037665;28;20313;-78
2021/12/24 00:59:33;;;;;;;5.80;3.23;;;;;;;;;;5038251;28;20297;-78
2021/12/24 01:02:03;;;;;;;3.33;3.03;;;;;;;;;;5040388;28;20305;-78
2021/12/24 01:04:30;;;;;;;3.83;3.37;;;;;;;;;;5035005;28;20300;-78
2021/12/24 01:06:58;;;;;;;4.43;2.90;;;;;;;;;;5043121;28;20289;-78
2021/12/24 01:09:26;;;;;;;5.03;3.20;;;;;;;;;;5035561;28;20312;-78
2021/12/24 01:11:53;;;;;;;3.87;3.23;;;;;;;;;;5037791;28;20593;-78
2021/12/24 01:14:22;;;;;;;4.27;3.27;;;;;;;;;;5036655;28;20301;-78
2021/12/24 01:16:59;;;;;;;3.43;2.97;;;;;;;;;;5042338;28;20626;-78
2021/12/24 01:19:27;;;;;;;4.47;3.53;;;;;;;;;;5033058;28;20265;-78
2021/12/24 01:22:23;;;;;;;3.40;3.10;;;;;;;;;;5036374;28;20233;-78
2021/12/24 01:24:58;;;;;;;3.50;3.20;;;;;;;;;;5034611;28;20213;-78
2021/12/24 01:27:49;;;;;;;4.53;3.30;;;;;;;;;;5034116;28;20229;-78
2021/12/24 01:37:51;;;;;;;3.50;3.20;;;;;;;;;;5034090;28;20226;-78
2021/12/24 01:38:49;;;;;;;3.80;3.13;;;;;;;;;;5034737;28;20272;-78
2021/12/24 01:42:40;;;;;;;3.13;2.87;;;;;;;;;;5029430;28;20357;-78
2021/12/24 01:44:07;;;;;;;3.40;3.10;;;;;;;;;;5033737;28;20210;-78
2021/12/24 01:46:34;;;;;;;5.40;3.20;;;;;;;;;;5029776;28;20221;-78
2021/12/24 01:49:01;;;;;;;4.13;3.73;;;;;;;;;;5035277;28;20212;-78
2021/12/24 01:51:29;;;;;;;3.67;3.27;;;;;;;;;;5034490;28;20561;-79
2021/12/24 01:53:57;;;;;;;5.20;3.53;;;;;;;;;;5034719;28;20202;-79
2021/12/24 01:56:25;;;;;;;3.97;3.50;;;;;;;;;;5036783;28;20210;-79
2021/12/24 01:58:52;;;;;;;3.60;3.30;;;;;;;;;;5035572;28;20232;-79
2021/12/24 02:01:25;;;;;;;3.67;3.30;;;;;;;;;;5035709;28;20297;-80
2021/12/24 02:03:52;;;;;;;4.83;4.23;;;;;;;;;;5034787;28;20206;-80
2021/12/24 02:06:19;;;;;;;4.23;3.43;;;;;;;;;;5036174;28;20288;-80
2021/12/24 02:08:46;;;;;;;3.60;3.30;;;;;;;;;;5049411;28;20225;-80
2021/12/24 02:11:14;;;;;;;3.47;3.13;;;;;;;;;;5043198;28;20222;-80
2021/12/24 02:13:42;;;;;;;3.73;3.00;;;;;;;;;;5035275;28;20296;-78
2021/12/24 02:16:17;;;;;;;3.40;3.10;;;;;;;;;;5036456;28;20229;-78
2021/12/24 02:29:49;;;;;;;3.83;2.77;;;;;;;;;;5037343;28;20225;-78
2021/12/24 02:32:17;;;;;;;3.17;2.53;;;;;;;;;;5038393;28;20212;-78
2021/12/24 02:34:44;;;;;;;3.40;2.70;;;;;;;;;;5019893;28;20218;-78
2021/12/24 02:37:13;;;;;;;2.93;2.57;;;;;;;;;;5035876;28;20198;-78
2021/12/24 02:39:40;;;;;;;4.17;2.97;;;;;;;;;;5047913;28;20289;-79
2021/12/24 02:42:16;;;;;;;2.83;2.63;;;;;;;;;;5040466;28;20232;-78
2021/12/24 02:44:43;;;;;;;2.80;2.60;;;;;;;;;;5039927;28;20256;-79
2021/12/24 02:47:35;;;;;;;2.83;2.57;;;;;;;;;;5049507;28;20248;-79
2021/12/24 02:55:31;;;;;;;2.87;2.60;;;;;;;;;;5039878;28;20276;-79
2021/12/24 02:57:58;;;;;;;2.80;2.60;;;;;;;;;;5040166;28;20298;-79
2021/12/24 03:00:27;;;;;;;3.07;2.47;;;;;;;;;;5033211;28;20272;-78
2021/12/24 03:02:55;;;;;;;3.60;2.50;;;;;;;;;;5032652;28;20205;-78
2021/12/24 03:05:24;;;;;;;2.90;2.60;;;;;;;;;;5033605;28;20296;-78
2021/12/24 03:07:52;;;;;;;2.83;2.63;;;;;;;;;;5041500;28;20227;-79
2021/12/24 03:10:21;;;;;;;3.13;2.80;;;;;;;;;;5040026;28;20257;-78
2021/12/24 03:12:50;;;;;;;3.53;2.77;;;;;;;;;;5048004;28;20233;-78
2021/12/24 03:15:18;;;;;;;2.50;2.30;;;;;;;;;;5038018;28;20205;-80
2021/12/24 03:17:50;;;;;;;2.67;2.47;;;;;;;;;;5037707;28;20285;-79
2021/12/24 03:20:17;;;;;;;3.20;2.90;;;;;;;;;;5033624;28;20272;-78
2021/12/24 03:22:50;;;;;;;3.03;2.83;;;;;;;;;;5041976;28;20206;-78
2021/12/24 03:25:19;;;;;;;2.93;2.70;;;;;;;;;;5040030;28;20198;-78
2021/12/24 03:27:47;;;;;;;2.70;2.50;;;;;;;;;;5040879;28;20249;-78
2021/12/24 03:30:14;;;;;;;2.70;2.50;;;;;;;;;;5042530;28;20249;-79
2021/12/24 03:32:42;;;;;;;3.13;2.80;;;;;;;;;;5042310;28;20216;-79
2021/12/24 03:35:09;;;;;;;3.47;2.90;;;;;;;;;;5042977;28;20205;-79
2021/12/24 03:37:37;;;;;;;2.90;2.70;;;;;;;;;;5047033;28;20224;-78
2021/12/24 03:40:04;;;;;;;3.67;2.80;;;;;;;;;;5045017;28;20301;-78
2021/12/24 03:42:37;;;;;;;2.90;2.70;;;;;;;;;;5045282;28;20206;-79
2021/12/24 03:45:10;;;;;;;2.97;2.77;;;;;;;;;;5045682;28;20215;-79
2021/12/24 03:47:40;;;;;;;3.03;2.73;;;;;;;;;;5038164;28;20762;-79
2021/12/24 03:50:11;;;;;;;2.50;2.30;;;;;;;;;;5045559;28;20229;-79
2021/12/24 03:53:03;;;;;;;4.13;3.17;;;;;;;;;;5050544;28;20206;-78
2021/12/24 03:55:27;;;;;;;3.57;2.43;;;;;;;;;;5042651;28;20206;-79
2021/12/24 03:57:55;;;;;;;3.13;2.40;;;;;;;;;;5043232;28;20202;-79
2021/12/24 04:00:24;;;;;;;2.70;2.50;;;;;;;;;;5047093;28;20316;-79
2021/12/24 04:02:51;;;;;;;2.90;2.50;;;;;;;;;;5040590;28;20217;-79
2021/12/24 04:05:19;;;;;;;3.00;2.50;;;;;;;;;;5039161;28;20305;-79
2021/12/24 04:07:46;;;;;;;2.80;2.50;;;;;;;;;;5038710;28;20684;-79
2021/12/24 04:10:22;;;;;;;2.87;2.37;;;;;;;;;;5038743;28;20230;-79
2021/12/24 04:12:50;;;;;;;3.37;3.00;;;;;;;;;;5037190;28;20201;-79
2021/12/24 04:15:19;;;;;;;2.50;2.30;;;;;;;;;;5038583;28;20245;-79
2021/12/24 04:17:46;;;;;;;2.83;2.50;;;;;;;;;;5040094;28;20317;-79
2021/12/24 04:25:44;;;;;;;3.20;2.57;;;;;;;;;;5037492;28;20200;-78
2021/12/24 04:28:11;;;;;;;3.43;2.40;;;;;;;;;;5037462;28;20218;-78
2021/12/24 04:30:45;;;;;;;2.60;2.40;;;;;;;;;;5036643;28;20268;-78
2021/12/24 04:33:18;;;;;;;2.40;2.20;;;;;;;;;;5036924;28;20209;-78
2021/12/24 04:35:56;;;;;;;2.80;2.53;;;;;;;;;;5036810;28;20273;-78
2021/12/24 04:38:38;;;;;;;2.70;2.50;;;;;;;;;;5036695;28;20216;-79
2021/12/24 04:52:15;;;;;;;4.60;2.90;;;;;;;;;;5042949;28;20192;-78
2021/12/24 05:03:03;;;;;;;4.73;3.20;;;;;;;;;;5036547;28;20216;-78
2021/12/24 05:05:42;;;;;;;3.73;3.17;;;;;;;;;;5037117;28;20221;-79
2021/12/24 05:08:23;;;;;;;3.50;3.20;;;;;;;;;;5036710;28;20229;-79
2021/12/24 05:10:51;;;;;;;4.10;3.53;;;;;;;;;;5035435;28;20271;-78
2021/12/24 05:13:19;;;;;;;3.33;3.07;;;;;;;;;;5035637;28;20240;-79
2021/12/24 05:15:50;;;;;;;3.30;3.00;;;;;;;;;;5034889;28;20637;-78
2021/12/24 05:18:34;;;;;;;4.77;3.30;;;;;;;;;;5034724;28;20233;-78
2021/12/24 05:23:46;;;;;;;3.93;3.40;;;;;;;;;;5034947;28;20204;-78
2021/12/24 05:26:14;;;;;;;5.27;3.23;;;;;;;;;;5025730;28;20226;-78
2021/12/24 05:28:41;;;;;;;3.50;3.10;;;;;;;;;;5033818;28;20222;-78
2021/12/24 05:31:08;;;;;;;4.03;3.03;;;;;;;;;;5033651;28;20222;-78
2021/12/24 05:33:37;;;;;;;3.83;3.13;;;;;;;;;;5035080;28;20206;-78
2021/12/24 05:36:05;;;;;;;3.37;2.90;;;;;;;;;;5033807;28;20236;-78
2021/12/24 05:38:32;;;;;;;3.57;3.27;;;;;;;;;;5034675;28;20296;-78
2021/12/24 05:40:59;;;;;;;3.83;3.33;;;;;;;;;;5034098;28;20326;-78
2021/12/24 05:43:26;;;;;;;3.43;2.80;;;;;;;;;;5034714;28;20216;-78
2021/12/24 05:45:53;;;;;;;3.30;3.00;;;;;;;;;;5041874;28;20202;-78
2021/12/24 05:48:21;;;;;;;3.20;2.90;;;;;;;;;;5034798;28;20309;-78
2021/12/24 05:50:50;;;;;;;2.80;2.60;;;;;;;;;;5034197;28;20333;-78
2021/12/24 05:53:17;;;;;;;3.37;2.90;;;;;;;;;;5036733;28;20206;-78
2021/12/24 05:55:44;;;;;;;3.63;2.90;;;;;;;;;;5034667;28;20288;-78
2021/12/24 05:58:11;;;;;;;3.27;2.90;;;;;;;;;;5035465;28;20619;-78
2021/12/24 06:00:39;;;;;;;4.30;3.00;;;;;;;;;;5033949;28;20221;-78
2021/12/24 06:03:07;;;;;;;3.10;2.90;;;;;;;;;;5051817;28;20282;-78
2021/12/24 06:05:34;;;;;;;3.43;3.00;;;;;;;;;;5064209;22;20233;-81
2021/12/24 06:08:03;;;;;;;3.33;3.00;;;;;;;;;;5032262;28;20228;-80
2021/12/24 06:10:31;;;;;;;2.80;2.60;;;;;;;;;;5034225;28;20232;-77
2021/12/24 06:12:58;;;;;;;4.60;3.30;;;;;;;;;;5034104;28;20194;-80
2021/12/24 06:15:27;;;;;;;3.37;3.07;;;;;;;;;;5034712;28;20316;-80
2021/12/24 06:17:56;;;;;;;3.33;2.90;;;;;;;;;;5035665;28;20202;-80
2021/12/24 06:20:24;;;;;;;3.80;2.80;;;;;;;;;;5036073;28;20274;-81
2021/12/24 06:22:51;;;;;;;3.20;2.83;;;;;;;;;;5035095;28;20300;-80
2021/12/24 06:25:21;;;;;;;5.23;3.20;;;;;;;;;;5034095;28;20252;-80
2021/12/24 06:27:48;;;;;;;4.60;3.33;;;;;;;;;;5033726;28;20309;-81
2021/12/24 06:30:16;;;;;;;3.60;3.30;;;;;;;;;;5030345;28;20233;-80
2021/12/24 06:32:44;;;;;;;2.97;2.77;;;;;;;;;;5033180;28;20301;-84
2021/12/24 06:35:11;;;;;;;4.30;3.50;;;;;;;;;;5032406;28;20309;-78
2021/12/24 06:37:39;;;;;;;4.13;3.57;;;;;;;;;;5027907;28;20213;-80
2021/12/24 06:40:07;;;;;;;3.60;3.30;;;;;;;;;;5030357;28;20293;-81
2021/12/24 06:42:35;;;;;;;3.60;3.30;;;;;;;;;;5029494;28;20198;-81
2021/12/24 06:45:03;;;;;;;4.17;3.30;;;;;;;;;;5031466;28;20300;-81
2021/12/24 06:47:30;;;;;;;5.43;3.67;;;;;;;;;;5032518;28;20272;-82
2021/12/24 06:49:57;;;;;;;4.10;3.80;;;;;;;;;;5031962;28;20230;-81
2021/12/24 06:52:24;;;;;;;3.97;3.50;;;;;;;;;;5030069;28;20594;-80
2021/12/24 06:54:52;;;;;;;4.83;3.90;;;;;;;;;;5030634;28;20336;-79
2021/12/24 06:57:20;;;;;;;4.20;3.80;;;;;;;;;;5034667;28;20225;-81
2021/12/24 06:59:49;;;;;;;5.03;3.50;;;;;;;;;;5032044;28;20198;-81
2021/12/24 07:02:16;;;;;;;5.77;3.90;;;;;;;;;;5030240;28;20233;-81
2021/12/24 07:04:44;;;;;;;4.43;4.03;;;;;;;;;;5031368;28;20324;-81
2021/12/24 07:07:11;;;;;;;5.40;4.37;;;;;;;;;;5033411;28;20274;-81
2021/12/24 07:09:42;;;;;;;4.10;3.70;;;;;;;;;;5034744;28;20250;-81
2021/12/24 07:12:10;;;;;;;5.50;4.23;;;;;;;;;;5031718;28;20199;-81
2021/12/24 07:14:38;;;;;;;5.57;4.23;;;;;;;;;;5027032;28;20232;-81
2021/12/24 07:17:08;;;;;;;4.70;3.73;;;;;;;;;;5033493;28;20197;-81
2021/12/24 07:19:35;;;;;;;4.40;4.00;;;;;;;;;;5034272;28;20210;-80
2021/12/24 07:22:02;;;;;;;5.07;4.20;;;;;;;;;;5032785;28;20218;-79
2021/12/24 07:24:29;;;;;;;4.13;3.73;;;;;;;;;;5035890;28;20297;-80
2021/12/24 07:26:57;;;;;;;4.33;3.83;;;;;;;;;;5030185;28;20202;-80
2021/12/24 07:29:24;;;;;;;5.33;4.00;;;;;;;;;;5034390;28;20312;-81
2021/12/24 07:31:51;;;;;;;4.40;3.83;;;;;;;;;;5032489;28;20218;-81
2021/12/24 07:34:20;;;;;;;5.33;4.20;;;;;;;;;;5030437;28;20231;-77
2021/12/24 07:36:47;;;;;;;4.20;3.80;;;;;;;;;;5035302;28;20237;-81
2021/12/24 07:39:14;;;;;;;4.33;3.90;;;;;;;;;;5030972;28;20293;-81
2021/12/24 07:41:42;;;;;;;4.37;3.73;;;;;;;;;;5035859;28;20292;-81
2021/12/24 07:44:12;;;;;;;5.40;3.83;;;;;;;;;;5035690;28;20209;-81
2021/12/24 07:46:44;;;;;;;4.33;3.87;;;;;;;;;;5036604;28;20248;-80
2021/12/24 07:49:29;;;;;;;4.80;4.23;;;;;;;;;;5040945;28;20233;-81
2021/12/24 07:52:08;;;;;;;5.43;4.27;;;;;;;;;;5044511;28;20218;-83
2021/12/24 07:54:37;;;;;;;5.53;3.73;;;;;;;;;;5040394;28;20269;-82
2021/12/24 07:57:05;;;;;;;4.60;4.00;;;;;;;;;;5056360;28;20217;-83
2021/12/24 07:59:37;;;;;;;4.93;4.20;;;;;;;;;;5052896;28;20470;-86
2021/12/24 08:02:05;;;;;;;4.63;4.20;;;;;;;;;;5045049;28;20226;-85
2021/12/24 08:04:33;;;;;;;4.43;3.90;;;;;;;;;;5055871;28;20206;-85
2021/12/24 08:07:03;;;;;;;5.23;4.80;;;;;;;;;;5052415;28;20201;-82
2021/12/24 08:09:31;;;;;;;5.03;4.10;;;;;;;;;;5040332;28;20222;-84
2021/12/24 08:11:58;;;;;;;4.13;3.70;;;;;;;;;;5039251;28;20232;-82
2021/12/24 08:14:26;;;;;;;4.33;3.93;;;;;;;;;;5043064;28;20206;-84
2021/12/24 08:16:53;;;;;;;4.33;3.60;;;;;;;;;;5040079;28;20210;-83
2021/12/24 08:19:20;;;;;;;4.53;4.03;;;;;;;;;;5037855;28;20194;-85
2021/12/24 08:21:47;;;;;;;5.07;3.90;;;;;;;;;;5037400;28;20206;-84
2021/12/24 08:24:16;;;;;;;5.63;4.23;;;;;;;;;;5037663;28;20206;-84
2021/12/24 08:26:44;;;;;;;3.87;3.57;;;;;;;;;;5018629;28;20254;-83
2021/12/24 08:29:11;;;;;;;3.67;3.33;;;;;;;;;;5020950;28;20218;-83
2021/12/24 08:31:39;;;;;;;5.40;3.97;;;;;;;;;;5026937;28;20213;-84
2021/12/24 08:34:06;;;;;;;5.30;4.10;;;;;;;;;;5025486;28;20205;-80
2021/12/24 08:36:34;;;;;;;4.77;4.23;;;;;;;;;;5049277;28;20205;-84
2021/12/24 08:39:01;;;;;;;4.40;3.73;;;;;;;;;;5049614;28;20236;-84
2021/12/24 08:41:30;;;;;;;4.33;3.70;;;;;;;;;;5058009;28;20209;-83
2021/12/24 08:43:57;;;;;;;3.97;3.43;;;;;;;;;;5034819;28;20213;-84
2021/12/24 08:46:26;;;;;;;3.90;3.60;;;;;;;;;;5037320;28;20222;-84
2021/12/24 08:48:54;;;;;;;3.63;3.03;;;;;;;;;;5037282;28;20226;-84
2021/12/24 08:51:21;;;;;;;4.27;3.60;;;;;;;;;;5037044;28;20225;-85
2021/12/24 08:53:49;;;;;;;3.70;3.40;;;;;;;;;;5040545;28;20210;-83
2021/12/24 08:56:16;;;;;;;3.83;3.43;;;;;;;;;;5044630;28;20228;-83
2021/12/24 08:58:45;;;;;;;4.47;3.20;;;;;;;;;;5062181;28;20297;-83
2021/12/24 09:01:27;;;;;;;3.50;3.20;;;;;;;;;;5042481;28;20202;-87
2021/12/24 09:03:55;;;;;;;4.43;3.33;;;;;;;;;;5050206;28;20206;-85
2021/12/24 09:06:23;;;;;;;3.80;3.37;;;;;;;;;;5049551;28;20287;-90
2021/12/24 09:08:51;;;;;;;3.87;3.47;;;;;;;;;;5054294;28;20230;-88
2021/12/24 09:11:18;;;;;;;5.13;3.67;;;;;;;;;;5051010;28;20203;-91
2021/12/24 09:13:47;;;;;;;4.50;3.57;;;;;;;;;;5052449;28;20215;-89
2021/12/24 09:19:23;;;;;;;6.53;5.03;;;;;;;;;;5051226;28;20192;-86
2021/12/24 09:53:21;;;;;;;4.10;3.53;;;;;;;;;;5031151;28;20296;-85
2021/12/24 09:55:52;;;;;;;5.17;3.57;;;;;;;;;;5028025;28;20226;-84
2021/12/24 09:58:19;;;;;;;3.60;3.30;;;;;;;;;;5025679;28;20251;-82
2021/12/24 10:00:46;;;;;;;4.70;4.13;;;;;;;;;;5036330;28;20214;-82
2021/12/24 10:03:31;;;;;;;5.27;3.77;;;;;;;;;;5053442;28;20426;-81
2021/12/24 10:06:01;;;;;;;4.73;4.20;;;;;;;;;;5050301;28;20884;-81
2021/12/24 10:08:30;;;;;;;3.73;3.13;;;;;;;;;;5054406;28;20236;-81
2021/12/24 10:11:02;;;;;;;4.00;3.70;;;;;;;;;;5053454;28;20245;-81
2021/12/24 10:13:47;;;;;;;;;;;;;;;;;;;;;
2021/12/24 10:16:17;;;;;;;4.30;3.90;;;;;;;;;;5046347;28;20256;-83
2021/12/24 10:18:56;;;;;;;4.20;3.83;;;;;;;;;;5048770;28;20202;-85
2021/12/24 10:21:25;;;;;;;4.40;4.00;;;;;;;;;;5046541;28;20243;-84
2021/12/24 10:24:02;;;;;;;6.50;4.07;;;;;;;;;;5051482;28;20255;-83
2021/12/24 10:26:30;;;;;;;5.00;3.90;;;;;;;;;;5044801;28;20267;-83
2021/12/24 10:29:00;;;;;;;7.17;3.83;;;;;;;;;;5047749;28;20241;-84
2021/12/24 10:31:29;;;;;;;3.93;3.53;;;;;;;;;;5056599;28;20229;-86
2021/12/24 10:34:07;;;;;;;4.60;3.40;;;;;;;;;;5062563;28;20184;-85
2021/12/24 10:36:34;;;;;;;3.90;3.50;;;;;;;;;;5063211;28;20232;-87
2021/12/24 10:39:06;;;;;;;3.80;3.40;;;;;;;;;;5045313;28;20198;-84
2021/12/24 10:41:43;;;;;;;3.77;3.37;;;;;;;;;;5051871;28;20228;-81
2021/12/24 10:44:16;;;;;;;4.70;3.47;;;;;;;;;;5046067;28;20198;-82
2021/12/24 10:46:57;;;;;;;4.07;3.73;;;;;;;;;;5051088;28;20285;-83
2021/12/24 10:49:37;;;;;;;3.67;3.33;;;;;;;;;;5051736;28;20271;-83
2021/12/24 10:52:13;;;;;;;4.20;3.27;;;;;;;;;;5049383;28;20224;-83
2021/12/24 10:54:52;;;;;;;4.00;3.33;;;;;;;;;;5056072;28;20204;-85
2021/12/24 10:57:20;;;;;;;3.80;3.37;;;;;;;;;;5056873;28;20235;-83
2021/12/24 10:59:49;;;;;;;3.90;3.10;;;;;;;;;;5061137;28;20235;-82
2021/12/24 11:02:17;;;;;;;3.60;2.80;;;;;;;;;;5047896;28;20225;-83
2021/12/24 11:04:44;;;;;;;3.30;3.00;;;;;;;;;;5051347;28;20224;-82
2021/12/24 11:07:26;;;;;;;3.53;3.23;;;;;;;;;;5049340;28;20233;-83
2021/12/24 11:10:09;;;;;;;3.57;2.87;;;;;;;;;;5045881;28;20220;-88
2021/12/24 11:12:41;;;;;;;2.63;2.43;;;;;;;;;;5042647;28;20232;-86
2021/12/24 11:15:38;;;;;;;;;;;;;;;;;;;;;
2021/12/24 11:18:11;;;;;;;3.03;2.83;;;;;;;;;;5035669;28;20209;-85
2021/12/24 11:20:41;;;;;;;3.23;2.93;;;;;;;;;;5046285;28;20262;-86
2021/12/24 11:23:09;;;;;;;2.70;2.50;;;;;;;;;;5049524;28;20271;-85
2021/12/24 11:25:42;;;;;;;3.23;2.60;;;;;;;;;;5050113;28;20216;-88
2021/12/24 11:28:17;;;;;;;2.70;2.47;;;;;;;;;;5043212;28;20275;-85
2021/12/24 11:30:46;;;;;;;2.70;2.50;;;;;;;;;;5047655;28;20220;-85
2021/12/24 11:33:18;;;;;;;2.80;2.40;;;;;;;;;;5050134;28;20205;-85
2021/12/24 11:35:46;;;;;;;2.53;2.33;;;;;;;;;;5055536;28;20267;-86
2021/12/24 11:38:15;;;;;;;2.40;2.20;;;;;;;;;;5052006;28;20197;-86
2021/12/24 11:40:47;;;;;;;3.10;2.57;;;;;;;;;;5054042;28;20208;-86
2021/12/24 11:43:14;;;;;;;2.33;2.13;;;;;;;;;;5055917;28;20197;-84
2021/12/24 11:45:42;;;;;;;2.23;2.03;;;;;;;;;;5056738;28;20209;-85
2021/12/24 11:48:09;;;;;;;2.17;1.97;;;;;;;;;;5063694;28;20197;-84
2021/12/24 11:50:36;;;;;;;2.37;2.17;;;;;;;;;;5051045;28;20227;-85
2021/12/24 11:53:06;;;;;;;2.00;1.90;;;;;;;;;;5054925;28;20735;-85
2021/12/24 11:55:34;;;;;;;2.73;2.53;;;;;;;;;;5052205;28;20379;-87
2021/12/24 11:58:09;;;;;;;2.20;2.00;;;;;;;;;;5053727;28;20236;-87
2021/12/24 12:00:39;;;;;;;2.93;2.10;;;;;;;;;;5049584;28;20223;-90
2021/12/24 12:03:27;;;;;;;2.53;2.10;;;;;;;;;;5053636;28;20193;-89
2021/12/24 12:05:54;;;;;;;1.97;1.87;;;;;;;;;;5051746;28;20304;-86
2021/12/24 12:08:40;;;;;;;2.30;2.10;;;;;;;;;;5054056;28;20334;-87
2021/12/24 12:11:09;;;;;;;2.20;2.00;;;;;;;;;;5051564;28;20235;-84
2021/12/24 12:13:39;;;;;;;2.43;1.93;;;;;;;;;;5050071;28;20205;-86
2021/12/24 12:16:20;;;;;;;2.93;2.33;;;;;;;;;;5054569;28;20326;-87
2021/12/24 12:18:50;;;;;;;2.10;1.90;;;;;;;;;;5049766;28;20209;-84
2021/12/24 12:21:21;;;;;;;2.10;1.90;;;;;;;;;;5043694;28;20214;-86
2021/12/24 12:24:57;;;;;;;2.40;2.20;;;;;;;;;;5044490;28;20232;-85
2021/12/24 12:27:03;;;;;;;3.13;2.70;;;;;;;;;;5051201;28;20212;-87
2021/12/24 12:29:39;;;;;;;1.90;1.80;;;;;;;;;;5058880;28;20221;-84
2021/12/24 12:32:24;;;;;;;1.80;1.70;;;;;;;;;;5058141;28;20221;-87
2021/12/24 12:34:59;;;;;;;2.03;1.60;;;;;;;;;;5057423;28;20263;-87
2021/12/24 12:37:29;;;;;;;1.70;1.60;;;;;;;;;;5048229;28;20280;-86
2021/12/24 12:39:58;;;;;;;1.50;1.40;;;;;;;;;;5048494;28;20193;-86
2021/12/24 12:42:45;;;;;;;1.90;1.80;;;;;;;;;;5048374;28;20882;-85
2021/12/24 12:45:16;;;;;;;1.60;1.50;;;;;;;;;;5050710;28;20232;-88
2021/12/24 12:47:52;;;;;;;2.10;2.00;;;;;;;;;;5056291;28;20209;-84
2021/12/24 12:50:20;;;;;;;1.50;1.40;;;;;;;;;;5054520;28;20212;-86
2021/12/24 12:52:48;;;;;;;1.57;1.40;;;;;;;;;;5053158;28;20256;-86
2021/12/24 12:55:29;;;;;;;1.80;1.43;;;;;;;;;;5054294;28;20205;-86
2021/12/24 12:58:11;;;;;;;1.97;1.40;;;;;;;;;;5047834;28;20197;-86
2021/12/24 13:00:40;;;;;;;2.00;1.40;;;;;;;;;;5036982;28;20202;-87
2021/12/24 13:03:14;;;;;;;1.50;1.40;;;;;;;;;;5067872;28;20276;-87
2021/12/24 13:05:56;;;;;;;1.40;1.30;;;;;;;;;;5054718;28;20209;-86
2021/12/24 13:08:27;;;;;;;1.63;1.53;;;;;;;;;;5054878;28;20219;-85
2021/12/24 13:11:00;;;;;;;1.57;1.47;;;;;;;;;;5053933;28;20226;-87
2021/12/24 13:13:27;;;;;;;1.57;1.43;;;;;;;;;;5053774;28;20725;-86
2021/12/24 13:15:57;;;;;;;1.57;1.30;;;;;;;;;;5056546;28;20224;-91
2021/12/24 13:18:28;;;;;;;1.60;1.50;;;;;;;;;;5056782;28;20259;-85
2021/12/24 13:23:42;;;;;;;1.80;1.50;;;;;;;;;;5054958;28;20200;-84
2021/12/24 13:26:15;;;;;;;1.60;1.50;;;;;;;;;;5054555;28;20216;-85
2021/12/24 13:28:56;;;;;;;1.47;1.37;;;;;;;;;;5050206;28;20198;-84
2021/12/24 13:31:25;;;;;;;1.90;1.70;;;;;;;;;;5052754;28;20237;-84
2021/12/24 13:33:52;;;;;;;2.40;1.30;;;;;;;;;;5051194;28;20236;-85
2021/12/24 13:36:22;;;;;;;1.47;1.37;;;;;;;;;;5043000;28;20672;-85
2021/12/24 13:38:49;;;;;;;1.63;1.47;;;;;;;;;;5046893;28;20231;-85
2021/12/24 13:41:18;;;;;;;1.10;1.10;;;;;;;;;;5054015;28;20217;-85
2021/12/24 13:43:45;;;;;;;1.50;1.40;;;;;;;;;;5047222;28;20209;-85
2021/12/24 13:46:14;;;;;;;1.50;1.30;;;;;;;;;;5045352;28;20280;-86
2021/12/24 13:49:17;;;;;;;1.50;1.40;;;;;;;;;;5046291;28;20292;-85
2021/12/24 13:54:41;;;;;;;1.77;1.47;;;;;;;;;;4974517;28;20201;-86
2021/12/24 13:57:08;;;;;;;1.87;1.43;;;;;;;;;;5046294;28;20224;-86
2021/12/24 13:59:36;;;;;;;1.87;1.53;;;;;;;;;;5039912;28;20201;-86
2021/12/24 14:02:09;;;;;;;1.60;1.50;;;;;;;;;;5040474;28;20221;-86
2021/12/24 14:04:38;;;;;;;1.83;1.73;;;;;;;;;;5044746;28;20197;-86
2021/12/24 14:07:05;;;;;;;1.50;1.40;;;;;;;;;;5048456;28;20201;-86
2021/12/24 14:09:34;;;;;;;1.60;1.50;;;;;;;;;;5050809;28;20188;-88
2021/12/24 14:12:03;;;;;;;1.63;1.53;;;;;;;;;;5062108;28;20217;-87
2021/12/24 14:14:41;;;;;;;2.00;1.80;;;;;;;;;;5071860;28;20217;-87
2021/12/24 14:17:33;;;;;;;1.50;1.40;;;;;;;;;;5069955;28;20205;-86
2021/12/24 14:20:10;;;;;;;1.50;1.30;;;;;;;;;;5053376;28;20192;-85
2021/12/24 14:22:40;;;;;;;1.67;1.57;;;;;;;;;;5068751;28;20204;-86
2021/12/24 14:25:10;;;;;;;1.47;1.37;;;;;;;;;;5052485;28;20201;-86
2021/12/24 14:27:39;;;;;;;1.50;1.40;;;;;;;;;;5059931;28;20215;-90
2021/12/24 14:30:07;;;;;;;1.50;1.40;;;;;;;;;;5053178;28;20256;-87
2021/12/24 14:32:35;;;;;;;1.37;1.20;;;;;;;;;;5050977;28;20221;-86
2021/12/24 14:35:15;;;;;;;1.70;1.60;;;;;;;;;;5043143;28;20221;-90
2021/12/24 14:37:42;;;;;;;1.57;1.47;;;;;;;;;;5046485;28;20202;-81
2021/12/24 14:40:14;;;;;;;1.70;1.60;;;;;;;;;;5046863;28;20232;-81
2021/12/24 14:42:42;;;;;;;1.93;1.57;;;;;;;;;;5044448;28;20221;-82
2021/12/24 14:45:14;;;;;;;2.17;1.53;;;;;;;;;;5049958;28;20201;-83
2021/12/24 14:47:56;;;;;;;1.90;1.70;;;;;;;;;;5046394;28;20228;-84
2021/12/24 14:50:28;;;;;;;1.57;1.40;;;;;;;;;;5053216;28;20221;-85
2021/12/24 14:53:15;;;;;;;1.60;1.50;;;;;;;;;;5049539;28;20221;-81
2021/12/24 14:55:44;;;;;;;2.10;1.50;;;;;;;;;;5050124;28;20236;-82
2021/12/24 14:58:11;;;;;;;1.60;1.50;;;;;;;;;;5044283;28;20229;-83
2021/12/24 15:00:40;;;;;;;1.30;1.20;;;;;;;;;;5049112;28;20726;-82
2021/12/24 15:03:09;;;;;;;1.40;1.30;;;;;;;;;;5050846;28;20218;-82
2021/12/24 15:05:40;;;;;;;2.27;1.27;;;;;;;;;;5050560;28;20292;-82
2021/12/24 15:08:18;;;;;;;1.50;1.40;;;;;;;;;;5058951;28;20201;-82
2021/12/24 15:11:04;;;;;;;1.53;1.43;;;;;;;;;;5052681;28;20213;-82
2021/12/24 15:13:32;;;;;;;1.50;1.40;;;;;;;;;;5057327;28;20251;-82
2021/12/24 15:16:01;;;;;;;1.40;1.30;;;;;;;;;;5055812;28;20201;-82
2021/12/24 15:18:29;;;;;;;1.50;1.40;;;;;;;;;;5060357;28;20316;-82
2021/12/24 15:20:57;;;;;;;1.30;1.20;;;;;;;;;;5060259;28;20316;-82
2021/12/24 15:23:25;;;;;;;1.50;1.40;;;;;;;;;;5060095;28;20292;-82
2021/12/24 15:25:52;;;;;;;1.50;1.40;;;;;;;;;;5060477;28;20311;-82
2021/12/24 15:28:23;;;;;;;2.00;1.80;;;;;;;;;;5060865;28;20201;-82
2021/12/24 15:30:51;;;;;;;1.83;1.40;;;;;;;;;;5059225;28;20231;-82
2021/12/24 15:33:18;;;;;;;1.50;1.30;;;;;;;;;;5060474;28;20264;-82
2021/12/24 15:35:47;;;;;;;1.27;1.17;;;;;;;;;;5059934;28;20212;-82
2021/12/24 15:38:16;;;;;;;1.40;1.30;;;;;;;;;;5059595;28;20244;-82
2021/12/24 15:40:43;;;;;;;1.60;1.27;;;;;;;;;;5058896;28;20205;-82
2021/12/24 15:43:10;;;;;;;2.00;1.50;;;;;;;;;;5059074;28;20228;-82
2021/12/24 15:45:38;;;;;;;1.83;1.50;;;;;;;;;;5059716;28;20205;-82
2021/12/24 15:48:06;;;;;;;2.03;1.40;;;;;;;;;;5059643;28;20225;-82
2021/12/24 15:50:34;;;;;;;1.50;1.40;;;;;;;;;;5057864;28;20221;-82
2021/12/24 15:53:09;;;;;;;1.53;1.33;;;;;;;;;;5104923;22;20282;-87
2021/12/24 15:55:46;;;;;;;2.50;1.50;;;;;;;;;;5057557;28;20204;-88
2021/12/24 15:58:47;;;;;;;2.07;1.50;;;;;;;;;;5050557;28;20204;-88
2021/12/24 16:04:40;;;;;;;;;;;;;;;;;;;;;
2021/12/24 16:07:10;;;;;;;1.60;1.50;;;;;;;;;;5063817;28;20212;-87
2021/12/24 16:09:55;;;;;;;1.73;1.63;;;;;;;;;;5056916;28;20259;-87
2021/12/24 16:12:30;;;;;;;1.80;1.60;;;;;;;;;;5057629;28;20320;-88
2021/12/24 16:14:59;;;;;;;1.50;1.40;;;;;;;;;;5060286;28;20205;-87
2021/12/24 16:17:34;;;;;;;2.03;1.83;;;;;;;;;;5066053;28;20244;-88
2021/12/24 16:20:08;;;;;;;1.83;1.60;;;;;;;;;;5059106;28;20209;-88
2021/12/24 16:22:42;;;;;;;2.40;2.20;;;;;;;;;;5057196;28;20280;-87
2021/12/24 16:25:18;;;;;;;3.10;2.60;;;;;;;;;;5071059;28;20259;-87
2021/12/24 16:28:12;;;;;;;2.07;1.90;;;;;;;;;;5062968;28;20209;-88
2021/12/24 16:30:48;;;;;;;3.07;1.93;;;;;;;;;;5056102;28;20312;-87
2021/12/24 16:33:22;;;;;;;3.50;2.43;;;;;;;;;;5057465;28;20216;-87
2021/12/24 16:36:13;;;;;;;3.60;2.73;;;;;;;;;;5056331;28;20223;-87
2021/12/24 16:38:45;;;;;;;2.90;2.60;;;;;;;;;;5051907;28;20215;-87
2021/12/24 16:41:17;;;;;;;2.80;2.60;;;;;;;;;;5058429;28;20213;-87
2021/12/24 16:43:52;;;;;;;2.50;2.30;;;;;;;;;;5055876;28;20237;-87
2021/12/24 16:49:11;;;;;;;2.90;2.70;;;;;;;;;;5045295;28;20223;-87
2021/12/24 16:51:46;;;;;;;2.33;2.00;;;;;;;;;;5056192;28;20236;-87
2021/12/24 16:54:16;;;;;;;2.80;2.60;;;;;;;;;;5065036;28;20209;-87
2021/12/24 16:56:45;;;;;;;1.90;1.80;;;;;;;;;;5063870;28;20206;-87
2021/12/24 16:59:20;;;;;;;2.57;2.37;;;;;;;;;;5061778;28;20205;-87
2021/12/24 17:02:02;;;;;;;2.47;2.27;;;;;;;;;;5061117;28;20224;-85